createdAt,value
2023-04-04T00:00:05.448Z,2.34
2023-04-04T00:01:05.360Z,2.34
2023-04-04T00:02:05.321Z,2.30
2023-04-04T00:03:05.330Z,2.30
2023-04-04T00:04:05.244Z,2.27
2023-04-04T00:05:05.133Z,2.27
2023-04-04T00:06:05.089Z,2.25
2023-04-04T00:07:05.008Z,2.23
2023-04-04T00:08:04.963Z,2.24
2023-04-04T00:09:04.896Z,2.23
2023-04-04T00:10:04.816Z,2.17
2023-04-04T00:11:04.723Z,2.12
2023-04-04T00:12:04.674Z,2.12
2023-04-04T00:13:04.610Z,2.07
2023-04-04T00:14:04.579Z,2.06
2023-04-04T00:15:04.490Z,2.07
2023-04-04T00:16:04.478Z,2.05
2023-04-04T00:17:04.394Z,2.06
2023-04-04T00:18:04.426Z,2.06
2023-04-04T00:19:04.218Z,2.06
2023-04-04T00:20:04.237Z,2.05
2023-04-04T00:21:04.077Z,2.00
2023-04-04T00:22:04.058Z,2.00
2023-04-04T00:23:04.005Z,1.98
2023-04-04T00:24:03.949Z,1.98
2023-04-04T00:25:03.905Z,1.93
2023-04-04T00:26:03.808Z,1.90
2023-04-04T00:27:03.750Z,1.88
2023-04-04T00:28:03.674Z,1.84
2023-04-04T00:29:03.600Z,1.83
2023-04-04T00:30:03.581Z,1.80
2023-04-04T00:31:03.484Z,1.83
2023-04-04T00:32:03.404Z,1.79
2023-04-04T00:33:03.395Z,1.73
2023-04-04T00:34:03.289Z,1.77
2023-04-04T00:35:03.196Z,1.76
2023-04-04T00:36:26.640Z,1.72
2023-04-04T00:37:03.147Z,1.72
2023-04-04T00:38:03.030Z,1.66
2023-04-04T00:39:02.990Z,1.70
2023-04-04T00:40:02.929Z,1.70
2023-04-04T00:41:02.865Z,1.72
2023-04-04T00:42:02.788Z,1.69
2023-04-04T00:43:02.734Z,1.66
2023-04-04T00:44:02.672Z,1.63
2023-04-04T00:45:02.584Z,1.65
2023-04-04T00:46:02.579Z,1.62
2023-04-04T00:47:02.455Z,1.63
2023-04-04T00:48:02.431Z,1.60
2023-04-04T00:49:02.306Z,1.60
2023-04-04T00:50:02.268Z,1.62
2023-04-04T00:51:02.194Z,1.60
2023-04-04T00:52:02.178Z,1.60
2023-04-04T00:53:02.126Z,1.63
2023-04-04T00:56:20.473Z,1.54
2023-04-04T00:57:21.409Z,1.48
2023-04-04T00:58:21.334Z,1.45
2023-04-04T00:59:21.287Z,1.42
2023-04-04T01:00:21.229Z,1.40
2023-04-04T01:01:21.188Z,1.36
2023-04-04T01:02:21.068Z,1.32
2023-04-04T01:03:21.025Z,1.32
2023-04-04T01:04:20.984Z,1.30
2023-04-04T01:05:20.906Z,1.27
2023-04-04T01:06:20.849Z,1.23
2023-04-04T01:07:20.775Z,1.20
2023-04-04T01:08:20.685Z,1.14
2023-04-04T01:09:20.631Z,1.09
2023-04-04T01:10:20.566Z,1.06
2023-04-04T01:11:20.503Z,1.02
2023-04-04T01:12:20.415Z,0.94
2023-04-04T01:13:20.404Z,0.93
2023-04-04T01:14:20.311Z,0.87
2023-04-04T01:15:20.221Z,0.80
2023-04-04T01:16:20.219Z,0.79
2023-04-04T01:17:20.116Z,0.75
2023-04-04T01:18:20.079Z,0.72
2023-04-04T01:19:20.012Z,0.69
2023-04-04T01:20:19.927Z,0.68
2023-04-04T01:21:19.883Z,0.69
2023-04-04T01:22:19.796Z,0.68
2023-04-04T01:23:19.730Z,0.65
2023-04-04T01:24:19.693Z,0.60
2023-04-04T01:25:19.632Z,0.55
2023-04-04T01:26:19.552Z,0.53
2023-04-04T01:27:19.475Z,0.53
2023-04-04T01:28:19.390Z,0.50
2023-04-04T01:29:19.373Z,0.47
2023-04-04T01:30:19.289Z,0.46
2023-04-04T01:31:19.569Z,0.44
2023-04-04T01:32:19.175Z,0.41
2023-04-04T01:33:19.067Z,0.38
2023-04-04T01:34:19.029Z,0.36
2023-04-04T01:35:18.937Z,0.35
2023-04-04T01:36:19.012Z,0.33
2023-04-04T01:37:18.846Z,0.32
2023-04-04T01:38:18.796Z,0.29
2023-04-04T01:39:18.707Z,0.28
2023-04-04T01:40:18.648Z,0.26
2023-04-04T01:41:18.611Z,0.23
2023-04-04T01:42:18.493Z,0.23
2023-04-04T01:43:18.433Z,0.20
2023-04-04T01:44:18.384Z,0.15
2023-04-04T01:45:18.361Z,0.14
2023-04-04T01:46:18.294Z,0.14
2023-04-04T01:47:18.221Z,0.18
2023-04-04T01:48:18.128Z,0.13
2023-04-04T01:49:18.089Z,0.13
2023-04-04T01:50:17.998Z,0.14
2023-04-04T01:51:17.967Z,0.17
2023-04-04T01:52:17.902Z,0.20
2023-04-04T01:53:17.840Z,0.18
2023-04-04T01:54:17.721Z,0.18
2023-04-04T01:55:17.673Z,0.17
2023-04-04T01:56:17.634Z,0.13
2023-04-04T01:57:17.565Z,0.11
2023-04-04T01:58:17.507Z,0.11
2023-04-04T01:59:17.477Z,0.10
2023-04-04T02:00:17.402Z,0.11
2023-04-04T02:01:17.351Z,0.11
2023-04-04T02:02:17.238Z,0.10
2023-04-04T02:03:17.172Z,0.07
2023-04-04T02:04:17.127Z,0.04
2023-04-04T02:05:17.070Z,0.04
2023-04-04T02:06:16.981Z,0.02
2023-04-04T02:07:16.959Z,-0.01
2023-04-04T02:08:16.873Z,-0.03
2023-04-04T02:09:16.767Z,-0.04
2023-04-04T02:10:16.710Z,-0.05
2023-04-04T02:11:16.638Z,-0.04
2023-04-04T02:12:16.600Z,-0.05
2023-04-04T02:13:16.554Z,-0.04
2023-04-04T02:14:16.508Z,-0.08
2023-04-04T02:15:16.409Z,-0.11
2023-04-04T02:16:16.344Z,-0.08
2023-04-04T02:17:16.357Z,-0.11
2023-04-04T02:18:16.198Z,-0.11
2023-04-04T02:19:16.137Z,-0.14
2023-04-04T02:20:16.103Z,-0.15
2023-04-04T02:21:16.020Z,-0.19
2023-04-04T02:22:15.960Z,-0.16
2023-04-04T02:23:15.895Z,-0.14
2023-04-04T02:24:15.900Z,-0.14
2023-04-04T02:27:34.199Z,-0.14
2023-04-04T02:28:35.165Z,-0.16
2023-04-04T02:29:35.069Z,-0.21
2023-04-04T02:30:35.037Z,-0.22
2023-04-04T02:31:35.020Z,-0.22
2023-04-04T02:32:36.280Z,-0.25
2023-04-04T02:33:34.845Z,-0.31
2023-04-04T02:34:34.820Z,-0.33
2023-04-04T02:35:34.788Z,-0.37
2023-04-04T02:36:34.653Z,-0.40
2023-04-04T02:37:34.617Z,-0.42
2023-04-04T02:38:34.569Z,-0.42
2023-04-04T02:39:34.455Z,-0.44
2023-04-04T02:40:34.393Z,-0.42
2023-04-04T02:41:34.309Z,-0.39
2023-04-04T02:42:34.274Z,-0.37
2023-04-04T02:43:34.201Z,-0.40
2023-04-04T02:44:34.188Z,-0.40
2023-04-04T02:45:34.059Z,-0.40
2023-04-04T02:46:34.051Z,-0.40
2023-04-04T02:47:34.006Z,-0.42
2023-04-04T02:48:33.921Z,-0.44
2023-04-04T02:49:33.831Z,-0.47
2023-04-04T02:50:33.800Z,-0.43
2023-04-04T02:51:33.722Z,-0.43
2023-04-04T02:52:33.676Z,-0.42
2023-04-04T02:53:33.601Z,-0.39
2023-04-04T02:54:33.505Z,-0.42
2023-04-04T02:55:33.444Z,-0.44
2023-04-04T02:56:33.363Z,-0.46
2023-04-04T02:57:33.315Z,-0.43
2023-04-04T02:58:33.249Z,-0.39
2023-04-04T02:59:33.164Z,-0.36
2023-04-04T03:00:33.127Z,-0.34
2023-04-04T03:01:33.094Z,-0.33
2023-04-04T03:02:58.137Z,-0.29
2023-04-04T03:03:33.085Z,-0.31
2023-04-04T03:04:32.854Z,-0.36
2023-04-04T03:05:32.847Z,-0.39
2023-04-04T03:06:32.770Z,-0.36
2023-04-04T03:07:32.686Z,-0.33
2023-04-04T03:08:32.624Z,-0.33
2023-04-04T03:09:32.564Z,-0.33
2023-04-04T03:10:32.502Z,-0.33
2023-04-04T03:11:32.437Z,-0.37
2023-04-04T03:12:32.353Z,-0.36
2023-04-04T03:13:32.301Z,-0.37
2023-04-04T03:14:32.272Z,-0.40
2023-04-04T03:15:32.197Z,-0.43
2023-04-04T03:16:32.151Z,-0.42
2023-04-04T03:17:32.093Z,-0.43
2023-04-04T03:18:31.981Z,-0.44
2023-04-04T03:19:31.904Z,-0.43
2023-04-04T03:20:31.891Z,-0.46
2023-04-04T03:21:31.816Z,-0.46
2023-04-04T03:22:31.726Z,-0.46
2023-04-04T03:23:31.643Z,-0.46
2023-04-04T03:24:31.606Z,-0.47
2023-04-04T03:25:31.534Z,-0.49
2023-04-04T03:26:31.491Z,-0.51
2023-04-04T03:27:31.404Z,-0.52
2023-04-04T03:28:31.337Z,-0.55
2023-04-04T03:29:31.285Z,-0.57
2023-04-04T03:30:31.192Z,-0.60
2023-04-04T03:31:31.277Z,-0.61
2023-04-04T03:32:31.120Z,-0.64
2023-04-04T03:33:31.054Z,-0.64
2023-04-04T03:34:30.987Z,-0.64
2023-04-04T03:35:31.029Z,-0.65
2023-04-04T03:36:30.876Z,-0.70
2023-04-04T03:37:30.787Z,-0.72
2023-04-04T03:38:30.731Z,-0.75
2023-04-04T03:39:30.673Z,-0.78
2023-04-04T03:40:30.584Z,-0.78
2023-04-04T03:41:30.536Z,-0.78
2023-04-04T03:42:30.475Z,-0.79
2023-04-04T03:43:30.384Z,-0.83
2023-04-04T03:44:30.344Z,-0.85
2023-04-04T03:45:30.297Z,-0.91
2023-04-04T03:46:30.292Z,-0.92
2023-04-04T03:47:30.185Z,-0.92
2023-04-04T03:48:30.110Z,-0.94
2023-04-04T03:49:29.978Z,-0.95
2023-04-04T03:50:29.998Z,-0.95
2023-04-04T03:51:29.901Z,-0.97
2023-04-04T03:52:29.820Z,-0.97
2023-04-04T03:53:50.695Z,-0.97
2023-04-04T03:54:29.725Z,-0.99
2023-04-04T03:55:29.630Z,-0.99
2023-04-04T03:58:48.050Z,-0.98
2023-04-04T03:59:48.935Z,-0.94
2023-04-04T04:00:48.866Z,-0.92
2023-04-04T04:01:48.800Z,-0.89
2023-04-04T04:02:48.811Z,-0.86
2023-04-04T04:03:48.757Z,-0.89
2023-04-04T04:04:48.610Z,-0.92
2023-04-04T04:05:48.539Z,-0.95
2023-04-04T04:06:48.501Z,-0.95
2023-04-04T04:07:48.404Z,-0.97
2023-04-04T04:08:48.383Z,-0.95
2023-04-04T04:09:48.304Z,-0.95
2023-04-04T04:10:48.222Z,-0.91
2023-04-04T04:11:48.182Z,-0.86
2023-04-04T04:12:48.094Z,-0.85
2023-04-04T04:13:48.048Z,-0.86
2023-04-04T04:14:48.020Z,-0.85
2023-04-04T04:19:26.242Z,-0.85
2023-04-04T04:20:27.147Z,-0.85
2023-04-04T04:21:27.083Z,-0.85
2023-04-04T04:22:26.960Z,-0.91
2023-04-04T04:23:26.904Z,-0.86
2023-04-04T04:24:26.801Z,-0.86
2023-04-04T04:25:26.801Z,-0.86
2023-04-04T04:26:26.711Z,-0.85
2023-04-04T04:27:26.759Z,-0.79
2023-04-04T04:28:34.089Z,-0.78
2023-04-04T04:29:26.536Z,-0.78
2023-04-04T04:30:26.462Z,-0.75
2023-04-04T04:31:26.458Z,-0.75
2023-04-04T04:32:26.367Z,-0.78
2023-04-04T04:33:26.238Z,-0.76
2023-04-04T04:34:26.209Z,-0.76
2023-04-04T04:35:27.363Z,-0.76
2023-04-04T04:36:26.067Z,-0.78
2023-04-04T04:37:26.004Z,-0.76
2023-04-04T04:38:25.983Z,-0.75
2023-04-04T04:39:25.903Z,-0.73
2023-04-04T04:40:25.816Z,-0.75
2023-04-04T04:41:25.797Z,-0.79
2023-04-04T04:42:25.701Z,-0.85
2023-04-04T04:43:25.640Z,-0.94
2023-04-04T04:44:25.587Z,-0.97
2023-04-04T04:45:25.529Z,-1.02
2023-04-04T04:46:25.446Z,-1.05
2023-04-04T04:47:25.420Z,-1.07
2023-04-04T04:48:25.305Z,-1.07
2023-04-04T04:49:25.300Z,-1.09
2023-04-04T04:50:25.180Z,-1.07
2023-04-04T04:51:25.113Z,-1.10
2023-04-04T04:52:25.051Z,-1.12
2023-04-04T04:53:25.008Z,-1.17
2023-04-04T04:54:24.983Z,-1.19
2023-04-04T04:55:24.899Z,-1.20
2023-04-04T04:56:24.766Z,-1.22
2023-04-04T04:57:24.734Z,-1.20
2023-04-04T04:58:25.951Z,-1.19
2023-04-04T04:59:24.591Z,-1.19
2023-04-04T05:00:24.545Z,-1.20
2023-04-04T05:01:24.514Z,-1.19
2023-04-04T05:02:24.461Z,-1.16
2023-04-04T05:03:24.397Z,-1.15
2023-04-04T05:04:24.257Z,-1.12
2023-04-04T05:05:24.240Z,-1.10
2023-04-04T05:06:24.155Z,-1.10
2023-04-04T05:07:24.100Z,-1.10
2023-04-04T05:08:24.066Z,-1.09
2023-04-04T05:09:24.002Z,-1.05
2023-04-04T05:10:23.896Z,-1.01
2023-04-04T05:11:23.857Z,-1.01
2023-04-04T05:12:23.798Z,-0.94
2023-04-04T05:13:23.720Z,-0.91
2023-04-04T05:14:23.626Z,-0.89
2023-04-04T05:15:23.610Z,-0.85
2023-04-04T05:16:23.609Z,-0.82
2023-04-04T05:17:23.523Z,-0.80
2023-04-04T05:18:23.418Z,-0.80
2023-04-04T05:19:23.347Z,-0.76
2023-04-04T05:20:23.249Z,-0.75
2023-04-04T05:21:23.175Z,-0.72
2023-04-04T05:22:23.133Z,-0.72
2023-04-04T05:23:23.118Z,-0.67
2023-04-04T05:24:23.043Z,-0.64
2023-04-04T05:25:22.976Z,-0.57
2023-04-04T05:26:22.877Z,-0.54
2023-04-04T05:27:22.849Z,-0.52
2023-04-04T05:28:22.799Z,-0.49
2023-04-04T05:31:42.065Z,-0.42
2023-04-04T05:32:42.986Z,-0.40
2023-04-04T05:33:42.913Z,-0.37
2023-04-04T05:34:42.876Z,-0.36
2023-04-04T05:35:42.814Z,-0.31
2023-04-04T05:36:42.769Z,-0.28
2023-04-04T05:37:42.624Z,-0.23
2023-04-04T05:38:42.563Z,-0.21
2023-04-04T05:39:42.509Z,-0.18
2023-04-04T05:40:42.523Z,-0.15
2023-04-04T05:41:42.425Z,-0.14
2023-04-04T05:42:42.386Z,-0.10
2023-04-04T05:43:42.303Z,-0.07
2023-04-04T05:44:42.183Z,-0.04
2023-04-04T05:45:42.223Z,-0.03
2023-04-04T05:46:42.119Z,-0.04
2023-04-04T05:47:42.026Z,-0.04
2023-04-04T05:48:41.976Z,-0.04
2023-04-04T05:49:41.865Z,-0.03
2023-04-04T05:50:42.031Z,-0.01
2023-04-04T05:51:41.780Z,0.00
2023-04-04T05:52:41.685Z,0.03
2023-04-04T05:53:41.661Z,0.03
2023-04-04T05:54:42.816Z,0.04
2023-04-04T05:55:41.509Z,0.08
2023-04-04T05:56:41.450Z,0.13
2023-04-04T05:57:41.355Z,0.15
2023-04-04T05:58:41.291Z,0.18
2023-04-04T05:59:41.257Z,0.20
2023-04-04T06:00:41.488Z,0.24
2023-04-04T06:01:41.122Z,0.29
2023-04-04T06:02:41.093Z,0.33
2023-04-04T06:03:41.117Z,0.39
2023-04-04T06:04:41.037Z,0.46
2023-04-04T06:05:40.955Z,0.51
2023-04-04T06:06:40.815Z,0.58
2023-04-04T06:07:40.744Z,0.66
2023-04-04T06:08:53.109Z,0.73
2023-04-04T06:09:40.634Z,0.83
2023-04-04T06:10:40.718Z,0.90
2023-04-04T06:11:40.496Z,0.98
2023-04-04T06:12:40.448Z,1.04
2023-04-04T06:13:40.333Z,1.08
2023-04-04T06:14:40.296Z,1.20
2023-04-04T06:15:40.235Z,1.32
2023-04-04T06:16:40.163Z,1.50
2023-04-04T06:17:40.187Z,1.79
2023-04-04T06:18:40.053Z,2.03
2023-04-04T06:19:39.989Z,2.25
2023-04-04T06:20:40.078Z,2.42
2023-04-04T06:21:39.872Z,2.64
2023-04-04T06:22:39.784Z,2.92
2023-04-04T06:23:39.698Z,3.13
2023-04-04T06:24:43.695Z,3.15
2023-04-04T06:25:39.588Z,3.21
2023-04-04T06:26:39.565Z,3.33
2023-04-04T06:27:39.461Z,3.40
2023-04-04T06:28:39.403Z,3.45
2023-04-04T06:29:39.302Z,3.57
2023-04-04T06:30:39.593Z,3.55
2023-04-04T06:31:39.246Z,3.65
2023-04-04T06:32:39.137Z,3.76
2023-04-04T06:33:39.075Z,3.88
2023-04-04T06:34:39.046Z,3.98
2023-04-04T06:35:38.919Z,4.00
2023-04-04T06:36:38.891Z,4.16
2023-04-04T06:37:38.823Z,4.29
2023-04-04T06:38:38.758Z,4.29
2023-04-04T06:39:38.703Z,4.34
2023-04-04T06:40:38.814Z,4.51
2023-04-04T06:41:38.570Z,4.55
2023-04-04T06:42:38.503Z,4.66
2023-04-04T06:43:38.438Z,4.72
2023-04-04T06:44:38.404Z,4.89
2023-04-04T06:45:38.317Z,4.97
2023-04-04T06:46:38.243Z,5.07
2023-04-04T06:47:38.254Z,5.13
2023-04-04T06:48:38.413Z,5.15
2023-04-04T06:49:38.076Z,5.07
2023-04-04T06:50:38.217Z,5.15
2023-04-04T06:51:37.910Z,5.40
2023-04-04T06:52:39.560Z,5.65
2023-04-04T06:53:37.793Z,5.74
2023-04-04T06:54:37.748Z,5.83
2023-04-04T06:55:37.647Z,6.01
2023-04-04T06:56:37.595Z,6.03
2023-04-04T06:57:37.561Z,6.11
2023-04-04T06:58:37.472Z,6.31
2023-04-04T06:59:37.406Z,6.37
2023-04-04T07:00:38.903Z,6.48
2023-04-04T07:01:37.284Z,6.56
2023-04-04T07:02:37.381Z,6.66
2023-04-04T07:03:37.150Z,6.79
2023-04-04T07:04:37.074Z,6.31
2023-04-04T07:05:37.024Z,6.11
2023-04-04T07:06:37.017Z,6.04
2023-04-04T07:07:36.871Z,6.08
2023-04-04T07:08:37.238Z,6.03
2023-04-04T07:09:36.869Z,5.94
2023-04-04T07:10:37.287Z,5.94
2023-04-04T07:11:36.620Z,5.96
2023-04-04T07:12:36.603Z,6.14
2023-04-04T07:13:36.518Z,6.37
2023-04-04T07:14:36.436Z,6.73
2023-04-04T07:15:36.395Z,7.15
2023-04-04T07:16:36.426Z,7.49
2023-04-04T07:17:36.302Z,7.68
2023-04-04T07:18:57.218Z,7.83
2023-04-04T07:19:36.168Z,8.12
2023-04-04T07:20:36.088Z,8.28
2023-04-04T07:21:36.013Z,8.55
2023-04-04T07:22:35.945Z,8.30
2023-04-04T07:23:35.859Z,7.87
2023-04-04T07:24:35.863Z,8.02
2023-04-04T07:25:35.755Z,8.33
2023-04-04T07:26:35.726Z,8.58
2023-04-04T07:27:35.638Z,8.59
2023-04-04T07:28:35.579Z,8.61
2023-04-04T07:29:35.541Z,8.63
2023-04-04T07:30:35.441Z,8.77
2023-04-04T07:31:35.387Z,8.84
2023-04-04T07:32:35.408Z,8.99
2023-04-04T07:33:35.229Z,9.04
2023-04-04T07:34:35.237Z,8.98
2023-04-04T07:35:35.164Z,8.92
2023-04-04T07:36:37.460Z,8.80
2023-04-04T07:37:35.000Z,8.89
2023-04-04T07:38:35.009Z,9.01
2023-04-04T07:39:34.906Z,8.95
2023-04-04T07:40:34.844Z,8.96
2023-04-04T07:41:34.765Z,8.96
2023-04-04T07:42:34.735Z,9.04
2023-04-04T07:43:34.630Z,9.14
2023-04-04T07:44:34.565Z,9.04
2023-04-04T07:45:34.474Z,9.15
2023-04-04T07:46:34.565Z,9.10
2023-04-04T07:47:34.429Z,9.02
2023-04-04T07:48:34.360Z,9.15
2023-04-04T07:49:34.277Z,9.38
2023-04-04T07:50:34.222Z,9.48
2023-04-04T07:51:34.120Z,9.42
2023-04-04T07:52:34.064Z,9.29
2023-04-04T07:53:34.007Z,9.51
2023-04-04T07:54:35.175Z,9.86
2023-04-04T07:55:33.855Z,10.05
2023-04-04T07:56:33.810Z,10.18
2023-04-04T07:57:33.774Z,10.51
2023-04-04T07:58:33.725Z,10.84
2023-04-04T07:59:33.622Z,11.00
2023-04-04T08:00:33.540Z,11.02
2023-04-04T08:01:33.533Z,10.84
2023-04-04T08:02:33.515Z,10.53
2023-04-04T08:03:33.574Z,10.34
2023-04-04T08:04:33.382Z,10.41
2023-04-04T08:05:33.224Z,10.32
2023-04-04T08:06:33.202Z,10.36
2023-04-04T08:07:33.093Z,10.56
2023-04-04T08:08:33.059Z,10.73
2023-04-04T08:09:32.966Z,10.96
2023-04-04T08:10:32.926Z,11.00
2023-04-04T08:11:32.859Z,11.28
2023-04-04T08:14:52.156Z,11.67
2023-04-04T08:15:53.132Z,11.28
2023-04-04T08:16:53.022Z,11.25
2023-04-04T08:17:52.988Z,11.24
2023-04-04T08:18:52.894Z,11.19
2023-04-04T08:19:52.875Z,11.00
2023-04-04T08:20:52.772Z,11.02
2023-04-04T08:21:52.711Z,10.99
2023-04-04T08:22:52.703Z,10.82
2023-04-04T08:23:52.589Z,10.51
2023-04-04T08:24:52.516Z,10.23
2023-04-04T08:25:52.468Z,9.93
2023-04-04T08:27:04.464Z,9.61
2023-04-04T08:27:52.349Z,9.72
2023-04-04T08:28:52.258Z,9.90
2023-04-04T08:29:52.200Z,10.01
2023-04-04T08:30:52.142Z,9.90
2023-04-04T08:31:52.210Z,9.56
2023-04-04T08:32:52.062Z,9.43
2023-04-04T08:33:51.949Z,9.40
2023-04-04T08:34:51.853Z,9.51
2023-04-04T08:35:51.827Z,9.83
2023-04-04T08:36:51.763Z,10.09
2023-04-04T08:37:51.712Z,9.81
2023-04-04T08:38:51.630Z,9.36
2023-04-04T08:39:51.584Z,9.50
2023-04-04T08:40:51.548Z,9.40
2023-04-04T08:41:51.442Z,9.28
2023-04-04T08:42:51.386Z,9.05
2023-04-04T08:43:51.364Z,8.84
2023-04-04T08:44:51.266Z,8.52
2023-04-04T08:45:51.180Z,8.23
2023-04-04T08:46:51.162Z,8.01
2023-04-04T08:47:51.150Z,7.64
2023-04-04T08:48:51.024Z,7.48
2023-04-04T08:52:09.286Z,8.68
2023-04-04T08:53:10.262Z,9.20
2023-04-04T08:54:10.142Z,9.71
2023-04-04T08:55:10.142Z,10.14
2023-04-04T08:56:10.047Z,10.45
2023-04-04T08:57:09.988Z,10.67
2023-04-04T08:58:09.960Z,10.67
2023-04-04T08:59:09.914Z,10.44
2023-04-04T09:00:10.072Z,10.41
2023-04-04T09:01:09.775Z,10.08
2023-04-04T09:02:09.705Z,9.42
2023-04-04T09:03:09.697Z,9.13
2023-04-04T09:04:09.553Z,8.98
2023-04-04T09:05:09.518Z,8.73
2023-04-04T09:06:09.424Z,8.73
2023-04-04T09:07:09.359Z,8.98
2023-04-04T09:08:09.287Z,9.32
2023-04-04T09:09:11.709Z,9.50
2023-04-04T09:10:09.183Z,9.29
2023-04-04T09:11:09.146Z,9.15
2023-04-04T09:12:09.106Z,9.10
2023-04-04T09:13:15.983Z,9.14
2023-04-04T09:14:08.961Z,8.94
2023-04-04T09:15:08.918Z,8.86
2023-04-04T09:16:08.857Z,9.02
2023-04-04T09:17:08.731Z,9.36
2023-04-04T09:18:08.724Z,9.69
2023-04-04T09:19:08.594Z,9.79
2023-04-04T09:20:08.590Z,10.05
2023-04-04T09:21:08.554Z,10.33
2023-04-04T09:22:08.436Z,10.66
2023-04-04T09:23:08.381Z,10.89
2023-04-04T09:24:08.331Z,11.09
2023-04-04T09:25:08.274Z,11.37
2023-04-04T09:26:08.165Z,11.22
2023-04-04T09:27:08.102Z,11.09
2023-04-04T09:28:08.055Z,10.97
2023-04-04T09:29:07.973Z,10.92
2023-04-04T09:30:07.962Z,10.97
2023-04-04T09:31:07.865Z,10.94
2023-04-04T09:32:07.849Z,10.89
2023-04-04T09:33:07.815Z,10.74
2023-04-04T09:34:07.717Z,10.53
2023-04-04T09:35:07.622Z,10.55
2023-04-04T09:36:07.645Z,10.36
2023-04-04T09:37:07.526Z,10.42
2023-04-04T09:38:07.461Z,10.59
2023-04-04T09:39:07.396Z,10.44
2023-04-04T09:40:07.344Z,9.69
2023-04-04T09:41:07.276Z,9.11
2023-04-04T09:42:07.166Z,8.66
2023-04-04T09:43:07.590Z,8.50
2023-04-04T09:44:07.086Z,8.50
2023-04-04T09:45:06.998Z,8.50
2023-04-04T09:46:06.971Z,8.65
2023-04-04T09:47:06.909Z,8.77
2023-04-04T09:48:06.913Z,8.65
2023-04-04T09:49:06.754Z,8.53
2023-04-04T09:50:06.738Z,8.37
2023-04-04T09:51:06.729Z,8.58
2023-04-04T09:52:06.585Z,8.76
2023-04-04T09:53:06.549Z,8.83
2023-04-04T09:54:09.004Z,8.99
2023-04-04T09:55:06.423Z,9.26
2023-04-04T09:56:06.349Z,9.50
2023-04-04T09:57:10.314Z,9.40
2023-04-04T09:58:06.303Z,9.40
2023-04-04T09:59:06.191Z,9.40
2023-04-04T10:00:06.120Z,9.54
2023-04-04T10:01:06.071Z,9.69
2023-04-04T10:02:05.924Z,9.47
2023-04-04T10:03:05.982Z,9.23
2023-04-04T10:04:05.859Z,9.15
2023-04-04T10:05:06.514Z,9.26
2023-04-04T10:06:07.284Z,9.11
2023-04-04T10:07:05.665Z,9.05
2023-04-04T10:08:05.608Z,9.23
2023-04-04T10:09:05.537Z,9.29
2023-04-04T10:10:05.485Z,9.21
2023-04-04T10:12:05.339Z,8.95
2023-04-04T10:13:05.268Z,8.86
2023-04-04T10:14:05.217Z,8.44
2023-04-04T10:15:05.159Z,8.25
2023-04-04T10:16:05.152Z,8.28
2023-04-04T10:17:05.050Z,8.23
2023-04-04T10:18:04.965Z,8.07
2023-04-04T10:19:04.919Z,7.97
2023-04-04T10:20:04.813Z,8.07
2023-04-04T10:21:15.144Z,8.18
2023-04-04T10:22:04.711Z,8.36
2023-04-04T10:23:04.676Z,8.62
2023-04-04T10:24:04.587Z,8.91
2023-04-04T10:25:04.525Z,9.17
2023-04-04T10:26:04.467Z,9.32
2023-04-04T10:27:04.448Z,9.40
2023-04-04T10:28:04.339Z,9.65
2023-04-04T10:29:04.262Z,9.74
2023-04-04T10:30:04.224Z,9.69
2023-04-04T10:31:06.612Z,9.76
2023-04-04T10:32:04.144Z,9.94
2023-04-04T10:33:04.129Z,10.05
2023-04-04T10:34:03.968Z,9.74
2023-04-04T10:35:03.914Z,9.23
2023-04-04T10:36:03.940Z,8.76
2023-04-04T10:37:03.784Z,8.50
2023-04-04T10:38:03.722Z,8.38
2023-04-04T10:39:03.664Z,8.29
2023-04-04T10:40:03.609Z,7.97
2023-04-04T10:41:03.558Z,7.89
2023-04-04T10:42:03.437Z,8.01
2023-04-04T10:43:03.433Z,8.08
2023-04-04T10:44:03.316Z,8.07
2023-04-04T10:45:17.044Z,8.29
2023-04-04T10:46:03.224Z,8.55
2023-04-04T10:47:03.183Z,8.71
2023-04-04T10:48:03.175Z,8.59
2023-04-04T10:49:03.076Z,8.59
2023-04-04T10:50:02.983Z,8.79
2023-04-04T10:51:26.278Z,9.04
2023-04-04T10:52:02.843Z,9.28
2023-04-04T10:53:02.779Z,9.28
2023-04-04T10:54:02.726Z,9.32
2023-04-04T10:55:02.664Z,9.38
2023-04-04T10:56:02.592Z,9.57
2023-04-04T10:57:02.559Z,9.74
2023-04-04T10:58:02.473Z,9.79
2023-04-04T10:59:02.458Z,9.78
2023-04-04T11:00:02.440Z,9.74
2023-04-04T11:01:02.387Z,9.65
2023-04-04T11:02:02.246Z,9.47
2023-04-04T11:03:02.597Z,9.14
2023-04-04T11:04:02.150Z,8.77
2023-04-04T11:05:02.030Z,8.62
2023-04-04T11:06:02.009Z,8.74
2023-04-04T11:07:01.930Z,8.83
2023-04-04T11:08:07.580Z,8.92
2023-04-04T11:09:01.868Z,8.83
2023-04-04T11:10:01.720Z,8.77
2023-04-04T11:11:05.149Z,8.79
2023-04-04T11:12:01.664Z,8.92
2023-04-04T11:13:11.639Z,9.04
2023-04-04T11:14:01.545Z,9.17
2023-04-04T11:15:01.446Z,8.94
2023-04-04T11:16:01.381Z,8.61
2023-04-04T11:17:01.299Z,8.47
2023-04-04T11:18:02.735Z,8.43
2023-04-04T11:19:01.224Z,8.38
2023-04-04T11:20:01.137Z,8.38
2023-04-04T11:21:01.034Z,8.45
2023-04-04T11:22:00.992Z,8.58
2023-04-04T11:23:00.916Z,8.65
2023-04-04T11:24:00.838Z,8.74
2023-04-04T11:25:00.813Z,8.81
2023-04-04T11:26:00.743Z,8.83
2023-04-04T11:27:00.718Z,8.92
2023-04-04T11:28:00.634Z,9.04
2023-04-04T11:29:00.518Z,9.13
2023-04-04T11:30:00.461Z,9.23
2023-04-04T11:31:00.376Z,9.28
2023-04-04T11:32:00.446Z,9.24
2023-04-04T11:33:07.291Z,9.28
2023-04-04T11:34:00.258Z,9.31
2023-04-04T11:35:00.154Z,9.20
2023-04-04T11:36:00.164Z,8.98
2023-04-04T11:36:59.997Z,8.91
2023-04-04T11:37:59.969Z,8.98
2023-04-04T11:38:59.947Z,8.99
2023-04-04T11:39:59.871Z,9.10
2023-04-04T11:40:59.770Z,9.08
2023-04-04T11:41:59.693Z,9.05
2023-04-04T11:42:59.662Z,9.01
2023-04-04T11:43:59.550Z,8.87
2023-04-04T11:44:59.539Z,8.86
2023-04-04T11:45:59.514Z,8.91
2023-04-04T11:46:59.389Z,8.96
2023-04-04T11:47:59.380Z,8.92
2023-04-04T11:48:59.274Z,8.91
2023-04-04T11:49:59.242Z,8.95
2023-04-04T11:50:59.176Z,9.04
2023-04-04T11:51:59.104Z,9.01
2023-04-04T11:52:59.034Z,8.98
2023-04-04T11:53:58.921Z,8.87
2023-04-04T11:54:58.880Z,8.53
2023-04-04T11:55:58.833Z,8.37
2023-04-04T11:56:58.756Z,8.38
2023-04-04T11:57:58.695Z,8.36
2023-04-04T11:59:08.590Z,8.38
2023-04-04T11:59:59.310Z,8.34
2023-04-04T12:00:58.543Z,8.30
2023-04-04T12:01:58.469Z,8.33
2023-04-04T12:03:19.990Z,8.37
2023-04-04T12:03:58.296Z,8.29
2023-04-04T12:04:58.291Z,8.22
2023-04-04T12:05:58.207Z,8.10
2023-04-04T12:06:58.133Z,8.08
2023-04-04T12:07:58.088Z,8.18
2023-04-04T12:08:58.001Z,8.19
2023-04-04T12:09:57.949Z,8.34
2023-04-04T12:10:57.860Z,8.56
2023-04-04T12:11:57.830Z,8.80
2023-04-04T12:12:57.767Z,8.96
2023-04-04T12:13:57.711Z,8.91
2023-04-04T12:15:10.379Z,9.01
2023-04-04T12:15:57.584Z,9.01
2023-04-04T12:16:57.527Z,9.21
2023-04-04T12:17:57.482Z,9.39
2023-04-04T12:18:57.368Z,9.54
2023-04-04T12:19:57.310Z,9.60
2023-04-04T12:20:58.471Z,9.57
2023-04-04T12:21:57.185Z,9.57
2023-04-04T12:22:57.127Z,9.61
2023-04-04T12:23:57.054Z,9.72
2023-04-04T12:24:56.969Z,9.76
2023-04-04T12:25:56.910Z,9.79
2023-04-04T12:26:56.902Z,9.86
2023-04-04T12:27:56.851Z,9.74
2023-04-04T12:28:56.768Z,9.69
2023-04-04T12:29:56.685Z,9.66
2023-04-04T12:30:56.593Z,9.64
2023-04-04T12:31:56.633Z,9.64
2023-04-04T12:32:56.491Z,9.64
2023-04-04T12:33:56.444Z,9.54
2023-04-04T12:34:56.393Z,9.11
2023-04-04T12:35:56.319Z,8.89
2023-04-04T12:36:56.268Z,8.74
2023-04-04T12:37:56.153Z,8.58
2023-04-04T12:38:56.110Z,8.56
2023-04-04T12:39:56.020Z,8.62
2023-04-04T12:40:55.961Z,8.74
2023-04-04T12:41:55.931Z,8.87
2023-04-04T12:42:55.834Z,9.01
2023-04-04T12:43:55.771Z,8.96
2023-04-04T12:44:55.760Z,8.99
2023-04-04T12:45:55.675Z,8.86
2023-04-04T12:46:55.595Z,8.61
2023-04-04T12:47:55.562Z,8.48
2023-04-04T12:48:55.478Z,8.47
2023-04-04T12:49:55.508Z,8.55
2023-04-04T12:50:55.386Z,8.71
2023-04-04T12:51:55.282Z,8.76
2023-04-04T12:53:00.307Z,8.68
2023-04-04T12:53:55.173Z,8.58
2023-04-04T12:55:55.038Z,8.87
2023-04-04T12:56:57.469Z,8.91
2023-04-04T12:57:54.946Z,8.84
2023-04-04T12:58:54.902Z,8.86
2023-04-04T12:59:54.783Z,8.87
2023-04-04T13:00:54.783Z,8.92
2023-04-04T13:01:54.634Z,8.92
2023-04-04T13:02:54.685Z,8.84
2023-04-04T13:03:54.533Z,8.68
2023-04-04T13:04:54.475Z,8.53
2023-04-04T13:05:54.523Z,8.44
2023-04-04T13:06:54.348Z,8.44
2023-04-04T13:07:54.256Z,8.44
2023-04-04T13:08:54.508Z,8.43
2023-04-04T13:09:54.174Z,8.33
2023-04-04T13:10:54.102Z,8.29
2023-04-04T13:11:54.015Z,8.26
2023-04-04T13:12:53.990Z,8.34
2023-04-04T13:13:53.917Z,8.38
2023-04-04T13:14:53.903Z,8.44
2023-04-04T13:15:53.754Z,8.34
2023-04-04T13:16:53.773Z,8.23
2023-04-04T13:17:53.769Z,8.16
2023-04-04T13:18:53.602Z,8.16
2023-04-04T13:19:53.534Z,8.16
2023-04-04T13:20:53.516Z,8.23
2023-04-04T13:21:53.402Z,8.28
2023-04-04T13:22:53.318Z,8.33
2023-04-04T13:23:53.275Z,8.38
2023-04-04T13:24:53.231Z,8.40
2023-04-04T13:25:53.173Z,8.43
2023-04-04T13:26:53.137Z,8.50
2023-04-04T13:27:53.067Z,8.59